sensor_id;sensor_type;location;lat;lon;timestamp;P1;durP1;ratioP1;P2;durP2;ratioP2
55069;SDS011;40967;52.070;8.596;2023-05-09T00:01:25;0.90;;;0.70;;
55069;SDS011;40967;52.070;8.596;2023-05-09T00:03:53;1.10;;;0.73;;
55069;SDS011;40967;52.070;8.596;2023-05-09T00:06:19;1.20;;;0.85;;
55069;SDS011;40967;52.070;8.596;2023-05-09T00:08:45;1.15;;;0.70;;
55069;SDS011;40967;52.070;8.596;2023-05-09T00:11:11;0.77;;;0.57;;
55069;SDS011;40967;52.070;8.596;2023-05-09T00:13:36;1.00;;;0.70;;
55069;SDS011;40967;52.070;8.596;2023-05-09T00:16:02;1.00;;;0.70;;
55069;SDS011;40967;52.070;8.596;2023-05-09T00:18:29;1.05;;;0.70;;
55069;SDS011;40967;52.070;8.596;2023-05-09T00:20:55;1.42;;;0.85;;
55069;SDS011;40967;52.070;8.596;2023-05-09T00:23:21;1.02;;;0.75;;
55069;SDS011;40967;52.070;8.596;2023-05-09T00:25:47;0.83;;;0.60;;
55069;SDS011;40967;52.070;8.596;2023-05-09T00:28:12;0.80;;;0.60;;
55069;SDS011;40967;52.070;8.596;2023-05-09T00:30:38;0.90;;;0.70;;
55069;SDS011;40967;52.070;8.596;2023-05-09T00:33:03;0.90;;;0.60;;
55069;SDS011;40967;52.070;8.596;2023-05-09T00:35:29;1.30;;;0.60;;
55069;SDS011;40967;52.070;8.596;2023-05-09T00:37:56;0.82;;;0.70;;
55069;SDS011;40967;52.070;8.596;2023-05-09T00:40:21;0.73;;;0.60;;
55069;SDS011;40967;52.070;8.596;2023-05-09T00:42:47;0.70;;;0.60;;
55069;SDS011;40967;52.070;8.596;2023-05-09T00:45:12;1.10;;;0.80;;
55069;SDS011;40967;52.070;8.596;2023-05-09T00:47:37;0.70;;;0.60;;
55069;SDS011;40967;52.070;8.596;2023-05-09T00:50:03;0.80;;;0.60;;
55069;SDS011;40967;52.070;8.596;2023-05-09T00:52:29;0.88;;;0.60;;
55069;SDS011;40967;52.070;8.596;2023-05-09T00:54:57;1.00;;;0.70;;
55069;SDS011;40967;52.070;8.596;2023-05-09T00:57:24;1.02;;;0.65;;
55069;SDS011;40967;52.070;8.596;2023-05-09T00:59:50;1.30;;;0.70;;
55069;SDS011;40967;52.070;8.596;2023-05-09T01:02:18;1.10;;;0.70;;
55069;SDS011;40967;52.070;8.596;2023-05-09T01:04:44;1.30;;;0.90;;
55069;SDS011;40967;52.070;8.596;2023-05-09T01:10:02;1.02;;;0.60;;
55069;SDS011;40967;52.070;8.596;2023-05-09T01:18:37;0.95;;;0.60;;
55069;SDS011;40967;52.070;8.596;2023-05-09T01:21:04;1.02;;;0.60;;
55069;SDS011;40967;52.070;8.596;2023-05-09T01:29:11;0.80;;;0.65;;
55069;SDS011;40967;52.070;8.596;2023-05-09T01:31:47;1.00;;;0.60;;
55069;SDS011;40967;52.070;8.596;2023-05-09T01:34:14;0.90;;;0.60;;
55069;SDS011;40967;52.070;8.596;2023-05-09T01:36:41;0.90;;;0.63;;
55069;SDS011;40967;52.070;8.596;2023-05-09T01:39:11;0.88;;;0.60;;
55069;SDS011;40967;52.070;8.596;2023-05-09T01:41:37;1.25;;;0.70;;
55069;SDS011;40967;52.070;8.596;2023-05-09T01:44:04;1.10;;;0.70;;
55069;SDS011;40967;52.070;8.596;2023-05-09T01:46:32;1.30;;;0.60;;
55069;SDS011;40967;52.070;8.596;2023-05-09T01:48:59;0.98;;;0.60;;
55069;SDS011;40967;52.070;8.596;2023-05-09T01:51:26;1.23;;;0.60;;
55069;SDS011;40967;52.070;8.596;2023-05-09T01:53:53;1.15;;;0.70;;
55069;SDS011;40967;52.070;8.596;2023-05-09T01:56:21;1.23;;;0.70;;
55069;SDS011;40967;52.070;8.596;2023-05-09T01:58:48;0.90;;;0.60;;
55069;SDS011;40967;52.070;8.596;2023-05-09T02:01:15;1.00;;;0.70;;
55069;SDS011;40967;52.070;8.596;2023-05-09T02:03:44;1.05;;;0.70;;
55069;SDS011;40967;52.070;8.596;2023-05-09T02:06:11;0.93;;;0.60;;
55069;SDS011;40967;52.070;8.596;2023-05-09T02:08:37;1.20;;;0.70;;
55069;SDS011;40967;52.070;8.596;2023-05-09T02:11:05;1.00;;;0.70;;
55069;SDS011;40967;52.070;8.596;2023-05-09T02:13:31;1.67;;;0.90;;
55069;SDS011;40967;52.070;8.596;2023-05-09T02:15:57;1.10;;;0.80;;
55069;SDS011;40967;52.070;8.596;2023-05-09T02:18:23;1.88;;;1.10;;
55069;SDS011;40967;52.070;8.596;2023-05-09T02:20:49;1.30;;;0.80;;
55069;SDS011;40967;52.070;8.596;2023-05-09T02:23:15;1.58;;;0.98;;
55069;SDS011;40967;52.070;8.596;2023-05-09T02:25:40;1.47;;;0.93;;
55069;SDS011;40967;52.070;8.596;2023-05-09T02:28:06;1.77;;;1.00;;
55069;SDS011;40967;52.070;8.596;2023-05-09T02:30:35;1.30;;;0.80;;
55069;SDS011;40967;52.070;8.596;2023-05-09T02:33:06;1.55;;;1.00;;
55069;SDS011;40967;52.070;8.596;2023-05-09T02:35:33;2.63;;;1.20;;
55069;SDS011;40967;52.070;8.596;2023-05-09T02:38:00;1.88;;;1.00;;
55069;SDS011;40967;52.070;8.596;2023-05-09T02:40:27;1.48;;;0.95;;
55069;SDS011;40967;52.070;8.596;2023-05-09T02:42:53;1.42;;;0.95;;
55069;SDS011;40967;52.070;8.596;2023-05-09T02:45:19;1.20;;;0.88;;
55069;SDS011;40967;52.070;8.596;2023-05-09T02:47:48;1.50;;;0.93;;
55069;SDS011;40967;52.070;8.596;2023-05-09T02:50:13;1.65;;;0.95;;
55069;SDS011;40967;52.070;8.596;2023-05-09T02:52:38;1.50;;;1.02;;
55069;SDS011;40967;52.070;8.596;2023-05-09T02:55:05;2.63;;;1.20;;
55069;SDS011;40967;52.070;8.596;2023-05-09T02:57:31;1.70;;;1.02;;
55069;SDS011;40967;52.070;8.596;2023-05-09T02:59:59;2.10;;;1.00;;
55069;SDS011;40967;52.070;8.596;2023-05-09T03:02:24;1.98;;;1.00;;
55069;SDS011;40967;52.070;8.596;2023-05-09T03:04:50;1.27;;;0.82;;
55069;SDS011;40967;52.070;8.596;2023-05-09T03:07:16;1.35;;;0.82;;
55069;SDS011;40967;52.070;8.596;2023-05-09T03:09:41;1.48;;;0.90;;
55069;SDS011;40967;52.070;8.596;2023-05-09T03:12:07;1.50;;;0.90;;
55069;SDS011;40967;52.070;8.596;2023-05-09T03:14:32;1.30;;;0.90;;
55069;SDS011;40967;52.070;8.596;2023-05-09T03:16:57;1.37;;;1.00;;
55069;SDS011;40967;52.070;8.596;2023-05-09T03:19:23;1.63;;;0.93;;
55069;SDS011;40967;52.070;8.596;2023-05-09T03:21:49;1.30;;;0.88;;
55069;SDS011;40967;52.070;8.596;2023-05-09T03:24:14;1.83;;;1.07;;
55069;SDS011;40967;52.070;8.596;2023-05-09T03:26:40;2.20;;;1.20;;
55069;SDS011;40967;52.070;8.596;2023-05-09T03:29:08;1.70;;;1.00;;
55069;SDS011;40967;52.070;8.596;2023-05-09T03:31:37;2.60;;;1.40;;
55069;SDS011;40967;52.070;8.596;2023-05-09T03:34:02;1.67;;;1.10;;
55069;SDS011;40967;52.070;8.596;2023-05-09T03:36:28;1.90;;;1.10;;
55069;SDS011;40967;52.070;8.596;2023-05-09T03:38:53;1.73;;;1.00;;
55069;SDS011;40967;52.070;8.596;2023-05-09T03:41:19;1.53;;;1.00;;
55069;SDS011;40967;52.070;8.596;2023-05-09T03:43:44;1.30;;;0.90;;
55069;SDS011;40967;52.070;8.596;2023-05-09T03:46:10;1.43;;;0.80;;
55069;SDS011;40967;52.070;8.596;2023-05-09T03:48:35;1.30;;;0.80;;
55069;SDS011;40967;52.070;8.596;2023-05-09T03:51:00;1.40;;;0.90;;
55069;SDS011;40967;52.070;8.596;2023-05-09T03:53:27;1.88;;;0.90;;
55069;SDS011;40967;52.070;8.596;2023-05-09T03:55:52;1.10;;;0.80;;
55069;SDS011;40967;52.070;8.596;2023-05-09T03:58:17;1.50;;;0.80;;
55069;SDS011;40967;52.070;8.596;2023-05-09T04:00:43;1.60;;;0.90;;
55069;SDS011;40967;52.070;8.596;2023-05-09T04:03:08;1.20;;;0.70;;
55069;SDS011;40967;52.070;8.596;2023-05-09T04:05:34;1.42;;;0.90;;
55069;SDS011;40967;52.070;8.596;2023-05-09T04:08:00;1.47;;;0.93;;
55069;SDS011;40967;52.070;8.596;2023-05-09T04:10:25;1.73;;;0.93;;
55069;SDS011;40967;52.070;8.596;2023-05-09T04:12:50;1.90;;;1.10;;
55069;SDS011;40967;52.070;8.596;2023-05-09T04:15:16;1.52;;;0.95;;
55069;SDS011;40967;52.070;8.596;2023-05-09T04:17:41;1.15;;;0.70;;
55069;SDS011;40967;52.070;8.596;2023-05-09T04:20:11;1.70;;;0.80;;
55069;SDS011;40967;52.070;8.596;2023-05-09T04:22:36;2.70;;;1.00;;
55069;SDS011;40967;52.070;8.596;2023-05-09T04:25:02;1.20;;;0.80;;
55069;SDS011;40967;52.070;8.596;2023-05-09T04:27:31;2.00;;;1.10;;
55069;SDS011;40967;52.070;8.596;2023-05-09T04:29:56;1.63;;;1.00;;
55069;SDS011;40967;52.070;8.596;2023-05-09T04:32:22;1.40;;;0.80;;
55069;SDS011;40967;52.070;8.596;2023-05-09T04:34:48;1.67;;;0.90;;
55069;SDS011;40967;52.070;8.596;2023-05-09T04:37:13;1.30;;;0.80;;
55069;SDS011;40967;52.070;8.596;2023-05-09T04:39:39;1.40;;;0.87;;
55069;SDS011;40967;52.070;8.596;2023-05-09T04:42:04;1.77;;;0.90;;
55069;SDS011;40967;52.070;8.596;2023-05-09T04:44:30;1.17;;;0.70;;
55069;SDS011;40967;52.070;8.596;2023-05-09T04:46:56;2.40;;;1.08;;
55069;SDS011;40967;52.070;8.596;2023-05-09T04:49:22;1.10;;;0.80;;
55069;SDS011;40967;52.070;8.596;2023-05-09T04:51:47;1.10;;;0.70;;
55069;SDS011;40967;52.070;8.596;2023-05-09T04:54:13;1.40;;;0.73;;
55069;SDS011;40967;52.070;8.596;2023-05-09T04:56:38;1.10;;;0.73;;
55069;SDS011;40967;52.070;8.596;2023-05-09T04:59:04;1.30;;;0.80;;
55069;SDS011;40967;52.070;8.596;2023-05-09T05:01:29;1.50;;;0.83;;
55069;SDS011;40967;52.070;8.596;2023-05-09T05:03:54;1.03;;;0.80;;
55069;SDS011;40967;52.070;8.596;2023-05-09T05:06:20;1.20;;;0.70;;
55069;SDS011;40967;52.070;8.596;2023-05-09T05:08:45;1.10;;;0.70;;
55069;SDS011;40967;52.070;8.596;2023-05-09T05:11:11;1.30;;;0.73;;
55069;SDS011;40967;52.070;8.596;2023-05-09T05:13:37;1.10;;;0.65;;
55069;SDS011;40967;52.070;8.596;2023-05-09T05:16:03;1.37;;;0.80;;
55069;SDS011;40967;52.070;8.596;2023-05-09T05:18:28;1.50;;;0.90;;
55069;SDS011;40967;52.070;8.596;2023-05-09T05:20:54;1.33;;;0.87;;
55069;SDS011;40967;52.070;8.596;2023-05-09T05:23:19;1.60;;;0.87;;
55069;SDS011;40967;52.070;8.596;2023-05-09T05:25:45;1.63;;;1.07;;
55069;SDS011;40967;52.070;8.596;2023-05-09T05:28:10;1.40;;;0.80;;
55069;SDS011;40967;52.070;8.596;2023-05-09T05:30:35;1.20;;;0.70;;
55069;SDS011;40967;52.070;8.596;2023-05-09T05:33:01;0.85;;;0.65;;
55069;SDS011;40967;52.070;8.596;2023-05-09T05:35:26;0.63;;;0.50;;
55069;SDS011;40967;52.070;8.596;2023-05-09T05:37:53;0.60;;;0.40;;
55069;SDS011;40967;52.070;8.596;2023-05-09T05:40:18;0.70;;;0.40;;
55069;SDS011;40967;52.070;8.596;2023-05-09T05:42:44;0.73;;;0.50;;
55069;SDS011;40967;52.070;8.596;2023-05-09T05:45:10;2.10;;;1.13;;
55069;SDS011;40967;52.070;8.596;2023-05-09T05:47:36;1.73;;;1.00;;
55069;SDS011;40967;52.070;8.596;2023-05-09T05:50:02;1.13;;;0.63;;
55069;SDS011;40967;52.070;8.596;2023-05-09T05:52:31;1.83;;;1.13;;
55069;SDS011;40967;52.070;8.596;2023-05-09T05:54:56;1.65;;;0.90;;
55069;SDS011;40967;52.070;8.596;2023-05-09T05:57:22;1.20;;;0.70;;
55069;SDS011;40967;52.070;8.596;2023-05-09T05:59:48;1.30;;;0.80;;
55069;SDS011;40967;52.070;8.596;2023-05-09T06:02:15;1.55;;;1.00;;
55069;SDS011;40967;52.070;8.596;2023-05-09T06:04:41;1.00;;;0.60;;
55069;SDS011;40967;52.070;8.596;2023-05-09T06:07:07;1.42;;;0.90;;
55069;SDS011;40967;52.070;8.596;2023-05-09T06:09:33;1.60;;;0.80;;
55069;SDS011;40967;52.070;8.596;2023-05-09T06:11:58;1.80;;;1.00;;
55069;SDS011;40967;52.070;8.596;2023-05-09T06:14:24;1.13;;;0.70;;
55069;SDS011;40967;52.070;8.596;2023-05-09T06:16:49;1.23;;;0.80;;
55069;SDS011;40967;52.070;8.596;2023-05-09T06:19:16;3.50;;;2.00;;
55069;SDS011;40967;52.070;8.596;2023-05-09T06:21:42;2.80;;;1.50;;
55069;SDS011;40967;52.070;8.596;2023-05-09T06:24:08;3.93;;;1.90;;
55069;SDS011;40967;52.070;8.596;2023-05-09T06:26:33;2.65;;;1.50;;
55069;SDS011;40967;52.070;8.596;2023-05-09T06:28:59;2.40;;;1.50;;
55069;SDS011;40967;52.070;8.596;2023-05-09T06:31:24;2.23;;;1.27;;
55069;SDS011;40967;52.070;8.596;2023-05-09T06:33:50;3.22;;;1.90;;
55069;SDS011;40967;52.070;8.596;2023-05-09T06:36:15;2.75;;;1.60;;
55069;SDS011;40967;52.070;8.596;2023-05-09T06:38:41;2.50;;;1.40;;
55069;SDS011;40967;52.070;8.596;2023-05-09T06:41:06;2.50;;;1.47;;
55069;SDS011;40967;52.070;8.596;2023-05-09T06:43:31;4.57;;;2.93;;
55069;SDS011;40967;52.070;8.596;2023-05-09T06:45:57;6.67;;;4.27;;
55069;SDS011;40967;52.070;8.596;2023-05-09T06:48:22;5.23;;;3.20;;
55069;SDS011;40967;52.070;8.596;2023-05-09T06:50:48;3.50;;;2.13;;
55069;SDS011;40967;52.070;8.596;2023-05-09T06:53:13;3.17;;;1.95;;
55069;SDS011;40967;52.070;8.596;2023-05-09T06:55:39;4.43;;;2.80;;
55069;SDS011;40967;52.070;8.596;2023-05-09T06:58:05;4.20;;;2.15;;
55069;SDS011;40967;52.070;8.596;2023-05-09T07:00:30;3.47;;;2.22;;
55069;SDS011;40967;52.070;8.596;2023-05-09T07:02:56;3.73;;;2.23;;
55069;SDS011;40967;52.070;8.596;2023-05-09T07:05:24;4.80;;;3.17;;
55069;SDS011;40967;52.070;8.596;2023-05-09T07:07:50;4.30;;;2.95;;
55069;SDS011;40967;52.070;8.596;2023-05-09T07:10:15;3.60;;;1.90;;
55069;SDS011;40967;52.070;8.596;2023-05-09T07:12:41;3.50;;;2.20;;
55069;SDS011;40967;52.070;8.596;2023-05-09T07:15:07;3.20;;;2.15;;
55069;SDS011;40967;52.070;8.596;2023-05-09T07:17:35;3.03;;;1.80;;
55069;SDS011;40967;52.070;8.596;2023-05-09T07:20:01;2.60;;;1.60;;
55069;SDS011;40967;52.070;8.596;2023-05-09T07:22:28;2.20;;;1.52;;
55069;SDS011;40967;52.070;8.596;2023-05-09T07:24:53;3.90;;;2.53;;
55069;SDS011;40967;52.070;8.596;2023-05-09T07:27:18;4.37;;;2.93;;
55069;SDS011;40967;52.070;8.596;2023-05-09T07:29:44;4.90;;;3.20;;
55069;SDS011;40967;52.070;8.596;2023-05-09T07:32:09;4.03;;;2.60;;
55069;SDS011;40967;52.070;8.596;2023-05-09T07:34:35;3.77;;;2.50;;
55069;SDS011;40967;52.070;8.596;2023-05-09T07:37:01;3.90;;;2.30;;
55069;SDS011;40967;52.070;8.596;2023-05-09T07:39:26;6.20;;;3.37;;
55069;SDS011;40967;52.070;8.596;2023-05-09T07:41:52;4.20;;;2.70;;
55069;SDS011;40967;52.070;8.596;2023-05-09T07:44:18;3.70;;;2.50;;
55069;SDS011;40967;52.070;8.596;2023-05-09T07:46:43;4.53;;;2.80;;
55069;SDS011;40967;52.070;8.596;2023-05-09T07:49:08;3.73;;;2.37;;
55069;SDS011;40967;52.070;8.596;2023-05-09T07:51:34;4.63;;;3.13;;
55069;SDS011;40967;52.070;8.596;2023-05-09T07:53:59;6.27;;;4.03;;
55069;SDS011;40967;52.070;8.596;2023-05-09T07:56:25;4.97;;;3.50;;
55069;SDS011;40967;52.070;8.596;2023-05-09T07:58:51;5.80;;;3.78;;
55069;SDS011;40967;52.070;8.596;2023-05-09T08:01:16;6.15;;;3.38;;
55069;SDS011;40967;52.070;8.596;2023-05-09T08:03:44;4.30;;;2.90;;
55069;SDS011;40967;52.070;8.596;2023-05-09T08:06:10;4.67;;;3.27;;
55069;SDS011;40967;52.070;8.596;2023-05-09T08:08:35;4.80;;;3.50;;
55069;SDS011;40967;52.070;8.596;2023-05-09T08:11:01;5.90;;;3.90;;
55069;SDS011;40967;52.070;8.596;2023-05-09T08:13:26;4.00;;;2.77;;
55069;SDS011;40967;52.070;8.596;2023-05-09T08:15:51;5.57;;;3.10;;
55069;SDS011;40967;52.070;8.596;2023-05-09T08:18:17;3.90;;;2.60;;
55069;SDS011;40967;52.070;8.596;2023-05-09T08:20:42;5.60;;;3.60;;
55069;SDS011;40967;52.070;8.596;2023-05-09T08:23:08;3.77;;;2.60;;
55069;SDS011;40967;52.070;8.596;2023-05-09T08:25:33;4.67;;;2.80;;
55069;SDS011;40967;52.070;8.596;2023-05-09T08:27:59;6.97;;;4.80;;
55069;SDS011;40967;52.070;8.596;2023-05-09T08:30:24;5.53;;;3.90;;
55069;SDS011;40967;52.070;8.596;2023-05-09T08:32:50;6.10;;;4.80;;
55069;SDS011;40967;52.070;8.596;2023-05-09T08:35:15;6.80;;;4.60;;
55069;SDS011;40967;52.070;8.596;2023-05-09T08:37:41;5.27;;;3.70;;
55069;SDS011;40967;52.070;8.596;2023-05-09T08:40:06;5.77;;;4.43;;
55069;SDS011;40967;52.070;8.596;2023-05-09T08:42:32;5.03;;;3.75;;
55069;SDS011;40967;52.070;8.596;2023-05-09T08:45:05;4.60;;;3.40;;
55069;SDS011;40967;52.070;8.596;2023-05-09T08:47:37;6.75;;;4.65;;
55069;SDS011;40967;52.070;8.596;2023-05-09T08:50:03;8.13;;;6.60;;
55069;SDS011;40967;52.070;8.596;2023-05-09T08:52:33;6.28;;;4.65;;
55069;SDS011;40967;52.070;8.596;2023-05-09T08:54:59;7.53;;;4.90;;
55069;SDS011;40967;52.070;8.596;2023-05-09T08:57:28;4.57;;;3.33;;
55069;SDS011;40967;52.070;8.596;2023-05-09T08:59:54;4.10;;;2.55;;
55069;SDS011;40967;52.070;8.596;2023-05-09T09:02:20;7.28;;;4.85;;
55069;SDS011;40967;52.070;8.596;2023-05-09T09:04:46;5.72;;;4.20;;
55069;SDS011;40967;52.070;8.596;2023-05-09T09:07:13;5.10;;;3.60;;
55069;SDS011;40967;52.070;8.596;2023-05-09T09:09:43;6.38;;;4.25;;
55069;SDS011;40967;52.070;8.596;2023-05-09T09:12:11;5.75;;;4.28;;
55069;SDS011;40967;52.070;8.596;2023-05-09T09:14:40;4.97;;;3.72;;
55069;SDS011;40967;52.070;8.596;2023-05-09T09:17:10;4.95;;;3.10;;
55069;SDS011;40967;52.070;8.596;2023-05-09T09:19:42;4.78;;;3.10;;
55069;SDS011;40967;52.070;8.596;2023-05-09T09:22:08;4.88;;;3.33;;
55069;SDS011;40967;52.070;8.596;2023-05-09T09:24:38;5.85;;;3.75;;
55069;SDS011;40967;52.070;8.596;2023-05-09T09:27:04;4.67;;;3.40;;
55069;SDS011;40967;52.070;8.596;2023-05-09T09:29:30;6.10;;;4.30;;
55069;SDS011;40967;52.070;8.596;2023-05-09T09:32:00;5.53;;;3.97;;
55069;SDS011;40967;52.070;8.596;2023-05-09T09:34:29;5.10;;;3.50;;
55069;SDS011;40967;52.070;8.596;2023-05-09T09:36:55;4.93;;;3.50;;
55069;SDS011;40967;52.070;8.596;2023-05-09T09:39:21;5.38;;;3.80;;
55069;SDS011;40967;52.070;8.596;2023-05-09T09:41:47;4.47;;;3.30;;
55069;SDS011;40967;52.070;8.596;2023-05-09T09:44:13;4.57;;;3.00;;
55069;SDS011;40967;52.070;8.596;2023-05-09T09:46:53;4.30;;;3.30;;
55069;SDS011;40967;52.070;8.596;2023-05-09T09:49:20;4.03;;;2.63;;
55069;SDS011;40967;52.070;8.596;2023-05-09T09:51:50;4.15;;;2.95;;
55069;SDS011;40967;52.070;8.596;2023-05-09T09:54:24;4.65;;;3.22;;
55069;SDS011;40967;52.070;8.596;2023-05-09T09:56:51;4.67;;;3.23;;
55069;SDS011;40967;52.070;8.596;2023-05-09T09:59:21;4.90;;;3.47;;
55069;SDS011;40967;52.070;8.596;2023-05-09T10:01:59;4.57;;;3.00;;
55069;SDS011;40967;52.070;8.596;2023-05-09T10:04:29;4.57;;;3.00;;
55069;SDS011;40967;52.070;8.596;2023-05-09T10:07:02;4.72;;;3.15;;
55069;SDS011;40967;52.070;8.596;2023-05-09T10:09:34;4.63;;;3.25;;
55069;SDS011;40967;52.070;8.596;2023-05-09T10:12:05;4.10;;;2.70;;
55069;SDS011;40967;52.070;8.596;2023-05-09T10:14:33;4.47;;;3.00;;
55069;SDS011;40967;52.070;8.596;2023-05-09T10:17:00;5.55;;;3.70;;
55069;SDS011;40967;52.070;8.596;2023-05-09T10:19:28;8.35;;;5.65;;
55069;SDS011;40967;52.070;8.596;2023-05-09T10:21:57;7.90;;;5.78;;
55069;SDS011;40967;52.070;8.596;2023-05-09T10:27:03;5.38;;;4.00;;
55069;SDS011;40967;52.070;8.596;2023-05-09T10:29:34;4.78;;;3.42;;
55069;SDS011;40967;52.070;8.596;2023-05-09T10:32:04;4.70;;;3.30;;
55069;SDS011;40967;52.070;8.596;2023-05-09T10:34:46;4.18;;;2.88;;
55069;SDS011;40967;52.070;8.596;2023-05-09T10:37:15;5.00;;;3.58;;
55069;SDS011;40967;52.070;8.596;2023-05-09T10:39:41;7.60;;;4.70;;
55069;SDS011;40967;52.070;8.596;2023-05-09T10:42:08;6.22;;;4.72;;
55069;SDS011;40967;52.070;8.596;2023-05-09T10:44:34;5.10;;;3.80;;
55069;SDS011;40967;52.070;8.596;2023-05-09T10:47:00;4.25;;;3.03;;
55069;SDS011;40967;52.070;8.596;2023-05-09T10:49:26;6.30;;;4.30;;
55069;SDS011;40967;52.070;8.596;2023-05-09T10:51:52;5.75;;;3.53;;
55069;SDS011;40967;52.070;8.596;2023-05-09T10:54:27;7.50;;;6.20;;
55069;SDS011;40967;52.070;8.596;2023-05-09T10:56:55;5.20;;;3.78;;
55069;SDS011;40967;52.070;8.596;2023-05-09T10:59:31;5.35;;;3.63;;
55069;SDS011;40967;52.070;8.596;2023-05-09T11:01:59;4.10;;;2.90;;
55069;SDS011;40967;52.070;8.596;2023-05-09T11:04:26;6.32;;;4.43;;
55069;SDS011;40967;52.070;8.596;2023-05-09T11:06:52;6.20;;;4.53;;
55069;SDS011;40967;52.070;8.596;2023-05-09T11:09:27;6.10;;;4.40;;
55069;SDS011;40967;52.070;8.596;2023-05-09T11:16:57;6.13;;;3.50;;
55069;SDS011;40967;52.070;8.596;2023-05-09T11:20:10;5.03;;;3.85;;
55069;SDS011;40967;52.070;8.596;2023-05-09T11:22:23;7.50;;;6.00;;
55069;SDS011;40967;52.070;8.596;2023-05-09T11:25:04;5.97;;;4.47;;
55069;SDS011;40967;52.070;8.596;2023-05-09T11:27:42;6.13;;;4.43;;
55069;SDS011;40967;52.070;8.596;2023-05-09T11:30:09;6.15;;;4.32;;
55069;SDS011;40967;52.070;8.596;2023-05-09T11:32:54;5.78;;;4.22;;
55069;SDS011;40967;52.070;8.596;2023-05-09T11:35:22;4.60;;;3.20;;
55069;SDS011;40967;52.070;8.596;2023-05-09T11:37:51;5.07;;;3.13;;
55069;SDS011;40967;52.070;8.596;2023-05-09T11:40:24;4.07;;;2.88;;
55069;SDS011;40967;52.070;8.596;2023-05-09T11:42:51;5.90;;;3.92;;
55069;SDS011;40967;52.070;8.596;2023-05-09T11:45:20;4.55;;;3.45;;
55069;SDS011;40967;52.070;8.596;2023-05-09T11:47:47;4.57;;;3.25;;
55069;SDS011;40967;52.070;8.596;2023-05-09T11:50:14;6.57;;;4.88;;
55069;SDS011;40967;52.070;8.596;2023-05-09T11:52:41;5.68;;;3.85;;
55069;SDS011;40967;52.070;8.596;2023-05-09T11:55:11;6.63;;;3.97;;
55069;SDS011;40967;52.070;8.596;2023-05-09T11:57:39;4.45;;;3.08;;
55069;SDS011;40967;52.070;8.596;2023-05-09T12:00:16;5.63;;;4.15;;
55069;SDS011;40967;52.070;8.596;2023-05-09T12:02:43;5.30;;;3.90;;
55069;SDS011;40967;52.070;8.596;2023-05-09T12:05:10;5.22;;;3.60;;
55069;SDS011;40967;52.070;8.596;2023-05-09T12:07:37;5.38;;;3.83;;
55069;SDS011;40967;52.070;8.596;2023-05-09T12:10:07;4.50;;;3.00;;
55069;SDS011;40967;52.070;8.596;2023-05-09T12:12:44;5.23;;;3.27;;
55069;SDS011;40967;52.070;8.596;2023-05-09T12:15:14;4.18;;;2.88;;
55069;SDS011;40967;52.070;8.596;2023-05-09T12:17:41;3.90;;;2.70;;
55069;SDS011;40967;52.070;8.596;2023-05-09T12:20:07;3.92;;;2.55;;
55069;SDS011;40967;52.070;8.596;2023-05-09T12:22:33;3.85;;;2.40;;
55069;SDS011;40967;52.070;8.596;2023-05-09T12:25:03;3.15;;;2.20;;
55069;SDS011;40967;52.070;8.596;2023-05-09T12:27:31;4.90;;;3.38;;
55069;SDS011;40967;52.070;8.596;2023-05-09T12:30:02;4.20;;;2.53;;
55069;SDS011;40967;52.070;8.596;2023-05-09T12:32:32;4.53;;;3.08;;
55069;SDS011;40967;52.070;8.596;2023-05-09T12:35:00;3.50;;;2.30;;
55069;SDS011;40967;52.070;8.596;2023-05-09T12:37:28;3.80;;;2.75;;
55069;SDS011;40967;52.070;8.596;2023-05-09T12:40:09;4.23;;;2.63;;
55069;SDS011;40967;52.070;8.596;2023-05-09T12:42:42;5.72;;;3.10;;
55069;SDS011;40967;52.070;8.596;2023-05-09T12:45:08;5.18;;;2.67;;
55069;SDS011;40967;52.070;8.596;2023-05-09T12:47:34;4.40;;;2.63;;
55069;SDS011;40967;52.070;8.596;2023-05-09T12:50:01;5.10;;;3.00;;
55069;SDS011;40967;52.070;8.596;2023-05-09T12:53:11;3.22;;;2.38;;
55069;SDS011;40967;52.070;8.596;2023-05-09T12:55:17;3.73;;;2.70;;
55069;SDS011;40967;52.070;8.596;2023-05-09T12:57:49;4.55;;;2.97;;
55069;SDS011;40967;52.070;8.596;2023-05-09T13:00:22;3.05;;;2.30;;
55069;SDS011;40967;52.070;8.596;2023-05-09T13:02:47;3.40;;;2.20;;
55069;SDS011;40967;52.070;8.596;2023-05-09T13:05:17;3.20;;;2.25;;
55069;SDS011;40967;52.070;8.596;2023-05-09T13:07:48;2.77;;;2.00;;
55069;SDS011;40967;52.070;8.596;2023-05-09T13:10:22;4.30;;;2.45;;
55069;SDS011;40967;52.070;8.596;2023-05-09T13:12:50;3.03;;;2.00;;
55069;SDS011;40967;52.070;8.596;2023-05-09T13:15:17;3.25;;;2.35;;
55069;SDS011;40967;52.070;8.596;2023-05-09T13:17:50;4.00;;;2.60;;
55069;SDS011;40967;52.070;8.596;2023-05-09T13:20:16;4.32;;;3.05;;
55069;SDS011;40967;52.070;8.596;2023-05-09T13:22:42;3.72;;;2.63;;
55069;SDS011;40967;52.070;8.596;2023-05-09T13:25:09;3.58;;;2.40;;
55069;SDS011;40967;52.070;8.596;2023-05-09T13:27:35;2.95;;;2.00;;
55069;SDS011;40967;52.070;8.596;2023-05-09T13:30:01;2.67;;;1.80;;
55069;SDS011;40967;52.070;8.596;2023-05-09T13:32:27;4.10;;;2.83;;
55069;SDS011;40967;52.070;8.596;2023-05-09T13:34:53;4.20;;;2.80;;
55069;SDS011;40967;52.070;8.596;2023-05-09T13:37:18;4.73;;;3.10;;
55069;SDS011;40967;52.070;8.596;2023-05-09T13:39:45;4.20;;;3.00;;
55069;SDS011;40967;52.070;8.596;2023-05-09T13:42:11;4.85;;;3.08;;
55069;SDS011;40967;52.070;8.596;2023-05-09T13:44:37;4.70;;;3.03;;
55069;SDS011;40967;52.070;8.596;2023-05-09T13:47:02;3.50;;;2.50;;
55069;SDS011;40967;52.070;8.596;2023-05-09T13:49:28;4.77;;;2.57;;
55069;SDS011;40967;52.070;8.596;2023-05-09T13:51:53;4.00;;;2.87;;
55069;SDS011;40967;52.070;8.596;2023-05-09T13:54:19;3.90;;;2.33;;
55069;SDS011;40967;52.070;8.596;2023-05-09T13:56:46;3.05;;;2.03;;
55069;SDS011;40967;52.070;8.596;2023-05-09T13:59:13;4.10;;;2.90;;
55069;SDS011;40967;52.070;8.596;2023-05-09T14:01:38;5.20;;;3.33;;
55069;SDS011;40967;52.070;8.596;2023-05-09T14:04:04;4.37;;;2.90;;
55069;SDS011;40967;52.070;8.596;2023-05-09T14:06:29;5.30;;;3.30;;
55069;SDS011;40967;52.070;8.596;2023-05-09T14:08:55;3.80;;;2.50;;
55069;SDS011;40967;52.070;8.596;2023-05-09T14:11:21;3.45;;;2.30;;
55069;SDS011;40967;52.070;8.596;2023-05-09T14:13:46;3.23;;;2.20;;
55069;SDS011;40967;52.070;8.596;2023-05-09T14:16:12;4.53;;;2.80;;
55069;SDS011;40967;52.070;8.596;2023-05-09T14:18:37;4.47;;;2.90;;
55069;SDS011;40967;52.070;8.596;2023-05-09T14:21:03;3.83;;;2.10;;
55069;SDS011;40967;52.070;8.596;2023-05-09T14:23:28;3.17;;;2.10;;
55069;SDS011;40967;52.070;8.596;2023-05-09T14:25:54;3.50;;;2.17;;
55069;SDS011;40967;52.070;8.596;2023-05-09T14:28:19;3.20;;;2.00;;
55069;SDS011;40967;52.070;8.596;2023-05-09T14:30:44;2.77;;;1.83;;
55069;SDS011;40967;52.070;8.596;2023-05-09T14:33:10;3.13;;;1.93;;
55069;SDS011;40967;52.070;8.596;2023-05-09T14:35:35;5.38;;;2.97;;
55069;SDS011;40967;52.070;8.596;2023-05-09T14:38:01;3.33;;;2.25;;
55069;SDS011;40967;52.070;8.596;2023-05-09T14:40:27;3.80;;;2.30;;
55069;SDS011;40967;52.070;8.596;2023-05-09T14:42:59;3.88;;;2.38;;
55069;SDS011;40967;52.070;8.596;2023-05-09T14:45:30;3.93;;;2.00;;
55069;SDS011;40967;52.070;8.596;2023-05-09T14:47:57;3.90;;;2.33;;
55069;SDS011;40967;52.070;8.596;2023-05-09T14:50:26;5.43;;;3.22;;
55069;SDS011;40967;52.070;8.596;2023-05-09T14:52:52;4.68;;;3.47;;
55069;SDS011;40967;52.070;8.596;2023-05-09T14:55:17;3.90;;;2.50;;
55069;SDS011;40967;52.070;8.596;2023-05-09T14:57:43;3.17;;;2.00;;
55069;SDS011;40967;52.070;8.596;2023-05-09T15:00:09;5.57;;;3.22;;
55069;SDS011;40967;52.070;8.596;2023-05-09T15:02:35;5.00;;;2.50;;
55069;SDS011;40967;52.070;8.596;2023-05-09T15:05:01;3.35;;;2.28;;
55069;SDS011;40967;52.070;8.596;2023-05-09T15:07:27;3.47;;;2.20;;
55069;SDS011;40967;52.070;8.596;2023-05-09T15:09:53;3.23;;;2.00;;